sensor_id;sensor_type;location;lat;lon;timestamp;P1;durP1;ratioP1;P2;durP2;ratioP2
3433;SDS011;1730;41.932;25.548;2023-05-29T00:00:14;6.43;;;5.63;;
3433;SDS011;1730;41.932;25.548;2023-05-29T00:02:43;8.00;;;7.20;;
3433;SDS011;1730;41.932;25.548;2023-05-29T00:05:10;5.80;;;5.40;;
3433;SDS011;1730;41.932;25.548;2023-05-29T00:07:38;7.13;;;6.63;;
3433;SDS011;1730;41.932;25.548;2023-05-29T00:10:04;6.57;;;6.07;;
3433;SDS011;1730;41.932;25.548;2023-05-29T00:12:30;6.50;;;6.00;;
3433;SDS011;1730;41.932;25.548;2023-05-29T00:14:56;7.20;;;6.50;;
3433;SDS011;1730;41.932;25.548;2023-05-29T00:17:22;6.40;;;5.90;;
3433;SDS011;1730;41.932;25.548;2023-05-29T00:19:49;7.90;;;6.00;;
3433;SDS011;1730;41.932;25.548;2023-05-29T00:22:14;6.00;;;5.60;;
3433;SDS011;1730;41.932;25.548;2023-05-29T00:24:40;5.93;;;5.47;;
3433;SDS011;1730;41.932;25.548;2023-05-29T00:27:05;8.17;;;6.53;;
3433;SDS011;1730;41.932;25.548;2023-05-29T00:29:31;7.20;;;5.80;;
3433;SDS011;1730;41.932;25.548;2023-05-29T00:31:57;8.80;;;6.40;;
3433;SDS011;1730;41.932;25.548;2023-05-29T00:34:23;5.80;;;4.87;;
3433;SDS011;1730;41.932;25.548;2023-05-29T00:36:48;5.70;;;5.20;;
3433;SDS011;1730;41.932;25.548;2023-05-29T00:39:14;5.60;;;5.20;;
3433;SDS011;1730;41.932;25.548;2023-05-29T00:41:40;6.33;;;5.77;;
3433;SDS011;1730;41.932;25.548;2023-05-29T00:44:06;5.97;;;5.57;;
3433;SDS011;1730;41.932;25.548;2023-05-29T00:46:32;6.30;;;5.83;;
3433;SDS011;1730;41.932;25.548;2023-05-29T00:48:58;6.30;;;5.80;;
3433;SDS011;1730;41.932;25.548;2023-05-29T00:51:25;6.47;;;5.97;;
3433;SDS011;1730;41.932;25.548;2023-05-29T00:53:52;6.23;;;5.50;;
3433;SDS011;1730;41.932;25.548;2023-05-29T00:56:19;6.27;;;5.87;;
3433;SDS011;1730;41.932;25.548;2023-05-29T00:58:46;7.90;;;6.57;;
3433;SDS011;1730;41.932;25.548;2023-05-29T01:01:15;7.90;;;6.23;;
3433;SDS011;1730;41.932;25.548;2023-05-29T01:03:42;5.80;;;5.30;;
3433;SDS011;1730;41.932;25.548;2023-05-29T01:06:08;7.03;;;6.33;;
3433;SDS011;1730;41.932;25.548;2023-05-29T01:08:35;7.00;;;6.50;;
3433;SDS011;1730;41.932;25.548;2023-05-29T01:11:20;6.67;;;6.10;;
3433;SDS011;1730;41.932;25.548;2023-05-29T01:14:00;6.80;;;5.63;;
3433;SDS011;1730;41.932;25.548;2023-05-29T01:16:32;5.97;;;5.60;;
3433;SDS011;1730;41.932;25.548;2023-05-29T01:19:21;6.80;;;5.30;;
3433;SDS011;1730;41.932;25.548;2023-05-29T01:21:59;5.93;;;5.43;;
3433;SDS011;1730;41.932;25.548;2023-05-29T01:27:57;5.60;;;5.20;;
3433;SDS011;1730;41.932;25.548;2023-05-29T01:30:27;5.50;;;5.20;;
3433;SDS011;1730;41.932;25.548;2023-05-29T01:32:56;5.40;;;4.90;;
3433;SDS011;1730;41.932;25.548;2023-05-29T01:35:22;5.30;;;4.90;;
3433;SDS011;1730;41.932;25.548;2023-05-29T01:37:47;4.40;;;4.20;;
3433;SDS011;1730;41.932;25.548;2023-05-29T01:40:13;5.67;;;5.13;;
3433;SDS011;1730;41.932;25.548;2023-05-29T01:42:39;5.07;;;4.70;;
3433;SDS011;1730;41.932;25.548;2023-05-29T01:45:05;5.40;;;5.10;;
3433;SDS011;1730;41.932;25.548;2023-05-29T01:47:32;5.10;;;4.70;;
3433;SDS011;1730;41.932;25.548;2023-05-29T01:49:58;4.97;;;4.47;;
3433;SDS011;1730;41.932;25.548;2023-05-29T01:52:25;4.67;;;4.37;;
3433;SDS011;1730;41.932;25.548;2023-05-29T01:54:50;4.60;;;4.20;;
3433;SDS011;1730;41.932;25.548;2023-05-29T01:57:16;4.50;;;4.20;;
3433;SDS011;1730;41.932;25.548;2023-05-29T01:59:42;5.63;;;5.23;;
3433;SDS011;1730;41.932;25.548;2023-05-29T02:02:08;6.63;;;4.70;;
3433;SDS011;1730;41.932;25.548;2023-05-29T02:04:34;6.63;;;4.43;;
3433;SDS011;1730;41.932;25.548;2023-05-29T02:06:59;7.43;;;4.90;;
3433;SDS011;1730;41.932;25.548;2023-05-29T02:09:25;5.00;;;4.60;;
3433;SDS011;1730;41.932;25.548;2023-05-29T02:11:51;6.10;;;5.00;;
3433;SDS011;1730;41.932;25.548;2023-05-29T02:14:17;6.33;;;5.83;;
3433;SDS011;1730;41.932;25.548;2023-05-29T02:16:42;6.30;;;5.40;;
3433;SDS011;1730;41.932;25.548;2023-05-29T02:19:09;6.37;;;5.77;;
3433;SDS011;1730;41.932;25.548;2023-05-29T02:21:38;5.57;;;5.07;;
3433;SDS011;1730;41.932;25.548;2023-05-29T02:24:04;10.03;;;7.77;;
3433;SDS011;1730;41.932;25.548;2023-05-29T02:26:29;6.57;;;5.47;;
3433;SDS011;1730;41.932;25.548;2023-05-29T02:28:55;6.90;;;5.87;;
3433;SDS011;1730;41.932;25.548;2023-05-29T02:31:21;7.37;;;5.43;;
3433;SDS011;1730;41.932;25.548;2023-05-29T02:33:46;10.77;;;6.00;;
3433;SDS011;1730;41.932;25.548;2023-05-29T02:36:13;7.27;;;5.73;;
3433;SDS011;1730;41.932;25.548;2023-05-29T02:38:39;5.87;;;5.27;;
3433;SDS011;1730;41.932;25.548;2023-05-29T02:41:05;8.60;;;5.83;;
3433;SDS011;1730;41.932;25.548;2023-05-29T02:43:31;5.77;;;5.47;;
3433;SDS011;1730;41.932;25.548;2023-05-29T02:45:56;7.60;;;5.30;;
3433;SDS011;1730;41.932;25.548;2023-05-29T02:48:22;5.13;;;4.63;;
3433;SDS011;1730;41.932;25.548;2023-05-29T02:50:47;6.03;;;5.53;;
3433;SDS011;1730;41.932;25.548;2023-05-29T02:53:13;7.93;;;5.33;;
3433;SDS011;1730;41.932;25.548;2023-05-29T02:55:38;5.77;;;5.20;;
3433;SDS011;1730;41.932;25.548;2023-05-29T02:58:03;5.67;;;5.17;;
3433;SDS011;1730;41.932;25.548;2023-05-29T03:00:29;11.10;;;5.60;;
3433;SDS011;1730;41.932;25.548;2023-05-29T03:02:55;8.97;;;5.70;;
3433;SDS011;1730;41.932;25.548;2023-05-29T03:05:20;5.33;;;4.97;;
3433;SDS011;1730;41.932;25.548;2023-05-29T03:07:46;6.20;;;5.70;;
3433;SDS011;1730;41.932;25.548;2023-05-29T03:10:11;6.03;;;5.63;;
3433;SDS011;1730;41.932;25.548;2023-05-29T03:12:37;8.93;;;5.00;;
3433;SDS011;1730;41.932;25.548;2023-05-29T03:15:03;6.27;;;5.87;;
3433;SDS011;1730;41.932;25.548;2023-05-29T03:17:29;5.57;;;5.07;;
3433;SDS011;1730;41.932;25.548;2023-05-29T03:19:54;7.00;;;5.40;;
3433;SDS011;1730;41.932;25.548;2023-05-29T03:22:20;6.10;;;5.70;;
3433;SDS011;1730;41.932;25.548;2023-05-29T03:24:47;9.43;;;5.53;;
3433;SDS011;1730;41.932;25.548;2023-05-29T03:27:12;5.63;;;5.23;;
3433;SDS011;1730;41.932;25.548;2023-05-29T03:29:38;5.70;;;5.10;;
3433;SDS011;1730;41.932;25.548;2023-05-29T03:32:03;4.97;;;4.57;;
3433;SDS011;1730;41.932;25.548;2023-05-29T03:34:29;6.27;;;5.03;;
3433;SDS011;1730;41.932;25.548;2023-05-29T03:36:55;5.10;;;4.67;;
3433;SDS011;1730;41.932;25.548;2023-05-29T03:39:22;7.90;;;5.00;;
3433;SDS011;1730;41.932;25.548;2023-05-29T03:41:47;8.30;;;5.00;;
3433;SDS011;1730;41.932;25.548;2023-05-29T03:44:13;5.30;;;4.57;;
3433;SDS011;1730;41.932;25.548;2023-05-29T03:46:38;5.50;;;4.97;;
3433;SDS011;1730;41.932;25.548;2023-05-29T03:49:04;5.10;;;4.70;;
3433;SDS011;1730;41.932;25.548;2023-05-29T03:51:32;5.40;;;4.87;;
3433;SDS011;1730;41.932;25.548;2023-05-29T03:53:57;5.70;;;5.10;;
3433;SDS011;1730;41.932;25.548;2023-05-29T03:56:23;5.30;;;5.00;;
3433;SDS011;1730;41.932;25.548;2023-05-29T03:58:49;8.37;;;5.67;;
3433;SDS011;1730;41.932;25.548;2023-05-29T04:01:15;5.00;;;4.53;;
3433;SDS011;1730;41.932;25.548;2023-05-29T04:03:40;7.53;;;5.37;;
3433;SDS011;1730;41.932;25.548;2023-05-29T04:06:07;6.20;;;5.23;;
3433;SDS011;1730;41.932;25.548;2023-05-29T04:08:33;7.30;;;5.20;;
3433;SDS011;1730;41.932;25.548;2023-05-29T04:10:58;6.30;;;5.23;;
3433;SDS011;1730;41.932;25.548;2023-05-29T04:13:24;12.43;;;5.27;;
3433;SDS011;1730;41.932;25.548;2023-05-29T04:15:49;5.40;;;5.00;;
3433;SDS011;1730;41.932;25.548;2023-05-29T04:18:19;5.00;;;4.60;;
3433;SDS011;1730;41.932;25.548;2023-05-29T04:20:45;10.93;;;5.03;;
3433;SDS011;1730;41.932;25.548;2023-05-29T04:23:12;5.50;;;5.03;;
3433;SDS011;1730;41.932;25.548;2023-05-29T04:25:39;5.70;;;5.20;;
3433;SDS011;1730;41.932;25.548;2023-05-29T04:28:04;5.57;;;5.10;;
3433;SDS011;1730;41.932;25.548;2023-05-29T04:30:30;5.07;;;4.67;;
3433;SDS011;1730;41.932;25.548;2023-05-29T04:32:57;5.80;;;5.20;;
3433;SDS011;1730;41.932;25.548;2023-05-29T04:35:23;5.13;;;4.73;;
3433;SDS011;1730;41.932;25.548;2023-05-29T04:37:48;6.23;;;5.73;;
3433;SDS011;1730;41.932;25.548;2023-05-29T04:40:14;8.60;;;5.83;;
3433;SDS011;1730;41.932;25.548;2023-05-29T04:42:42;6.17;;;5.60;;
3433;SDS011;1730;41.932;25.548;2023-05-29T04:45:10;5.97;;;5.57;;
3433;SDS011;1730;41.932;25.548;2023-05-29T04:47:36;5.60;;;5.17;;
3433;SDS011;1730;41.932;25.548;2023-05-29T04:50:09;5.40;;;5.00;;
3433;SDS011;1730;41.932;25.548;2023-05-29T04:52:36;5.13;;;4.80;;
3433;SDS011;1730;41.932;25.548;2023-05-29T04:55:02;5.43;;;5.10;;
3433;SDS011;1730;41.932;25.548;2023-05-29T04:57:28;5.00;;;4.60;;
3433;SDS011;1730;41.932;25.548;2023-05-29T04:59:54;6.63;;;4.57;;
3433;SDS011;1730;41.932;25.548;2023-05-29T05:02:20;5.60;;;5.20;;
3433;SDS011;1730;41.932;25.548;2023-05-29T05:04:45;5.77;;;5.20;;
3433;SDS011;1730;41.932;25.548;2023-05-29T05:07:11;5.53;;;5.03;;
3433;SDS011;1730;41.932;25.548;2023-05-29T05:09:36;9.33;;;5.63;;
3433;SDS011;1730;41.932;25.548;2023-05-29T05:12:02;5.87;;;5.30;;
3433;SDS011;1730;41.932;25.548;2023-05-29T05:14:27;5.50;;;5.00;;
3433;SDS011;1730;41.932;25.548;2023-05-29T05:16:53;5.70;;;5.30;;
3433;SDS011;1730;41.932;25.548;2023-05-29T05:19:19;5.87;;;4.87;;
3433;SDS011;1730;41.932;25.548;2023-05-29T05:21:44;5.30;;;4.90;;
3433;SDS011;1730;41.932;25.548;2023-05-29T05:24:10;7.30;;;4.50;;
3433;SDS011;1730;41.932;25.548;2023-05-29T05:26:35;5.17;;;4.70;;
3433;SDS011;1730;41.932;25.548;2023-05-29T05:29:01;6.10;;;5.60;;
3433;SDS011;1730;41.932;25.548;2023-05-29T05:31:27;4.73;;;4.43;;
3433;SDS011;1730;41.932;25.548;2023-05-29T05:33:52;4.80;;;4.40;;
3433;SDS011;1730;41.932;25.548;2023-05-29T05:36:18;5.23;;;4.83;;
3433;SDS011;1730;41.932;25.548;2023-05-29T05:38:43;5.70;;;4.37;;
3433;SDS011;1730;41.932;25.548;2023-05-29T05:41:09;10.20;;;7.30;;
3433;SDS011;1730;41.932;25.548;2023-05-29T05:43:35;4.97;;;4.60;;
3433;SDS011;1730;41.932;25.548;2023-05-29T05:46:00;5.07;;;4.67;;
3433;SDS011;1730;41.932;25.548;2023-05-29T05:48:27;5.70;;;4.83;;
3433;SDS011;1730;41.932;25.548;2023-05-29T05:50:52;8.40;;;5.07;;
3433;SDS011;1730;41.932;25.548;2023-05-29T05:53:17;5.53;;;5.13;;
3433;SDS011;1730;41.932;25.548;2023-05-29T05:55:43;5.50;;;5.10;;
3433;SDS011;1730;41.932;25.548;2023-05-29T05:58:08;5.43;;;5.13;;
3433;SDS011;1730;41.932;25.548;2023-05-29T06:00:35;5.80;;;5.30;;
3433;SDS011;1730;41.932;25.548;2023-05-29T06:03:01;6.03;;;5.53;;
3433;SDS011;1730;41.932;25.548;2023-05-29T06:05:29;5.43;;;5.00;;
3433;SDS011;1730;41.932;25.548;2023-05-29T06:07:55;5.40;;;4.90;;
3433;SDS011;1730;41.932;25.548;2023-05-29T06:10:20;11.20;;;6.03;;
3433;SDS011;1730;41.932;25.548;2023-05-29T06:12:46;5.10;;;4.70;;
3433;SDS011;1730;41.932;25.548;2023-05-29T06:15:12;6.57;;;5.40;;
3433;SDS011;1730;41.932;25.548;2023-05-29T06:17:38;6.03;;;5.53;;
3433;SDS011;1730;41.932;25.548;2023-05-29T06:20:04;7.80;;;5.03;;
3433;SDS011;1730;41.932;25.548;2023-05-29T06:22:35;6.00;;;5.40;;
3433;SDS011;1730;41.932;25.548;2023-05-29T06:25:01;12.73;;;4.87;;
3433;SDS011;1730;41.932;25.548;2023-05-29T06:27:26;5.27;;;4.77;;
3433;SDS011;1730;41.932;25.548;2023-05-29T06:29:52;7.03;;;4.57;;
3433;SDS011;1730;41.932;25.548;2023-05-29T06:32:17;5.10;;;4.80;;
3433;SDS011;1730;41.932;25.548;2023-05-29T06:34:43;5.10;;;4.70;;
3433;SDS011;1730;41.932;25.548;2023-05-29T06:37:08;5.30;;;4.80;;
3433;SDS011;1730;41.932;25.548;2023-05-29T06:39:34;5.43;;;4.63;;
3433;SDS011;1730;41.932;25.548;2023-05-29T06:42:00;5.70;;;5.13;;
3433;SDS011;1730;41.932;25.548;2023-05-29T06:44:26;5.30;;;4.87;;
3433;SDS011;1730;41.932;25.548;2023-05-29T06:46:52;6.33;;;5.83;;
3433;SDS011;1730;41.932;25.548;2023-05-29T06:49:17;7.20;;;5.00;;
3433;SDS011;1730;41.932;25.548;2023-05-29T06:51:44;5.73;;;5.20;;
3433;SDS011;1730;41.932;25.548;2023-05-29T06:54:10;6.83;;;5.30;;
3433;SDS011;1730;41.932;25.548;2023-05-29T06:56:36;5.40;;;5.00;;
3433;SDS011;1730;41.932;25.548;2023-05-29T06:59:01;5.80;;;5.37;;
3433;SDS011;1730;41.932;25.548;2023-05-29T07:01:28;6.20;;;5.70;;
3433;SDS011;1730;41.932;25.548;2023-05-29T07:03:57;5.10;;;4.60;;
3433;SDS011;1730;41.932;25.548;2023-05-29T07:06:23;5.37;;;4.80;;
3433;SDS011;1730;41.932;25.548;2023-05-29T07:08:48;5.20;;;4.80;;
3433;SDS011;1730;41.932;25.548;2023-05-29T07:13:42;5.50;;;5.10;;
3433;SDS011;1730;41.932;25.548;2023-05-29T07:16:07;5.90;;;5.40;;
3433;SDS011;1730;41.932;25.548;2023-05-29T07:18:33;5.00;;;4.60;;
3433;SDS011;1730;41.932;25.548;2023-05-29T07:20:59;5.83;;;5.00;;
3433;SDS011;1730;41.932;25.548;2023-05-29T07:23:25;6.70;;;5.40;;
3433;SDS011;1730;41.932;25.548;2023-05-29T07:25:51;5.10;;;4.60;;
3433;SDS011;1730;41.932;25.548;2023-05-29T07:28:16;7.90;;;4.90;;
3433;SDS011;1730;41.932;25.548;2023-05-29T07:30:42;4.77;;;4.37;;
3433;SDS011;1730;41.932;25.548;2023-05-29T07:33:07;5.50;;;4.87;;
3433;SDS011;1730;41.932;25.548;2023-05-29T07:35:33;7.90;;;4.00;;
3433;SDS011;1730;41.932;25.548;2023-05-29T07:37:59;5.40;;;4.63;;
3433;SDS011;1730;41.932;25.548;2023-05-29T07:40:26;10.63;;;5.40;;
3433;SDS011;1730;41.932;25.548;2023-05-29T07:42:52;4.80;;;4.50;;
3433;SDS011;1730;41.932;25.548;2023-05-29T07:45:18;15.63;;;5.07;;
3433;SDS011;1730;41.932;25.548;2023-05-29T07:47:43;7.10;;;4.40;;
3433;SDS011;1730;41.932;25.548;2023-05-29T07:50:09;4.93;;;4.30;;
3433;SDS011;1730;41.932;25.548;2023-05-29T07:52:35;6.37;;;4.10;;
3433;SDS011;1730;41.932;25.548;2023-05-29T07:55:01;6.10;;;4.83;;
3433;SDS011;1730;41.932;25.548;2023-05-29T07:57:27;12.13;;;4.73;;
3433;SDS011;1730;41.932;25.548;2023-05-29T07:59:53;5.57;;;5.07;;
3433;SDS011;1730;41.932;25.548;2023-05-29T08:02:19;5.63;;;5.23;;
3433;SDS011;1730;41.932;25.548;2023-05-29T08:04:44;4.53;;;4.30;;
3433;SDS011;1730;41.932;25.548;2023-05-29T08:07:10;6.03;;;4.23;;
3433;SDS011;1730;41.932;25.548;2023-05-29T08:09:35;4.83;;;4.50;;
3433;SDS011;1730;41.932;25.548;2023-05-29T08:12:01;5.00;;;4.50;;
3433;SDS011;1730;41.932;25.548;2023-05-29T08:14:27;4.47;;;4.07;;
3433;SDS011;1730;41.932;25.548;2023-05-29T08:16:52;4.33;;;4.03;;
3433;SDS011;1730;41.932;25.548;2023-05-29T08:19:18;4.30;;;3.90;;
3433;SDS011;1730;41.932;25.548;2023-05-29T08:21:43;9.07;;;8.13;;
3433;SDS011;1730;41.932;25.548;2023-05-29T08:24:09;4.20;;;4.00;;
3433;SDS011;1730;41.932;25.548;2023-05-29T08:26:35;4.83;;;4.43;;
3433;SDS011;1730;41.932;25.548;2023-05-29T08:29:01;4.90;;;4.50;;
3433;SDS011;1730;41.932;25.548;2023-05-29T08:31:27;4.77;;;4.57;;
3433;SDS011;1730;41.932;25.548;2023-05-29T08:33:54;5.07;;;4.37;;
3433;SDS011;1730;41.932;25.548;2023-05-29T08:36:20;5.47;;;4.77;;
3433;SDS011;1730;41.932;25.548;2023-05-29T08:38:50;4.20;;;3.80;;
3433;SDS011;1730;41.932;25.548;2023-05-29T08:41:27;4.60;;;4.40;;
3433;SDS011;1730;41.932;25.548;2023-05-29T08:44:14;7.03;;;4.67;;
3433;SDS011;1730;41.932;25.548;2023-05-29T08:46:50;8.13;;;4.43;;
3433;SDS011;1730;41.932;25.548;2023-05-29T08:49:47;9.03;;;4.93;;
3433;SDS011;1730;41.932;25.548;2023-05-29T08:52:23;5.50;;;4.97;;
3433;SDS011;1730;41.932;25.548;2023-05-29T08:54:53;5.00;;;4.70;;
3433;SDS011;1730;41.932;25.548;2023-05-29T08:57:21;4.97;;;4.57;;
3433;SDS011;1730;41.932;25.548;2023-05-29T08:59:47;6.50;;;4.80;;
3433;SDS011;1730;41.932;25.548;2023-05-29T09:02:16;7.37;;;4.50;;
3433;SDS011;1730;41.932;25.548;2023-05-29T09:04:44;5.20;;;4.90;;
3433;SDS011;1730;41.932;25.548;2023-05-29T09:07:13;6.70;;;4.93;;
3433;SDS011;1730;41.932;25.548;2023-05-29T09:09:39;5.37;;;4.87;;
3433;SDS011;1730;41.932;25.548;2023-05-29T09:12:06;4.73;;;4.43;;
3433;SDS011;1730;41.932;25.548;2023-05-29T09:14:40;6.13;;;4.60;;
3433;SDS011;1730;41.932;25.548;2023-05-29T09:17:10;4.30;;;4.00;;
3433;SDS011;1730;41.932;25.548;2023-05-29T09:19:38;5.83;;;4.50;;
3433;SDS011;1730;41.932;25.548;2023-05-29T09:22:06;4.87;;;4.50;;
3433;SDS011;1730;41.932;25.548;2023-05-29T09:24:35;9.30;;;4.33;;
3433;SDS011;1730;41.932;25.548;2023-05-29T09:27:03;6.10;;;5.10;;
3433;SDS011;1730;41.932;25.548;2023-05-29T09:29:40;6.20;;;5.17;;
3433;SDS011;1730;41.932;25.548;2023-05-29T09:32:11;12.50;;;9.30;;
3433;SDS011;1730;41.932;25.548;2023-05-29T09:34:39;7.57;;;4.50;;
3433;SDS011;1730;41.932;25.548;2023-05-29T09:37:06;4.83;;;4.47;;
3433;SDS011;1730;41.932;25.548;2023-05-29T09:42:16;4.63;;;4.33;;
3433;SDS011;1730;41.932;25.548;2023-05-29T09:44:43;4.40;;;4.10;;
3433;SDS011;1730;41.932;25.548;2023-05-29T09:47:18;9.70;;;4.40;;
3433;SDS011;1730;41.932;25.548;2023-05-29T09:49:44;8.87;;;4.53;;
3433;SDS011;1730;41.932;25.548;2023-05-29T09:52:11;5.47;;;5.00;;
3433;SDS011;1730;41.932;25.548;2023-05-29T09:54:42;4.00;;;3.60;;
3433;SDS011;1730;41.932;25.548;2023-05-29T09:57:15;7.67;;;4.50;;
3433;SDS011;1730;41.932;25.548;2023-05-29T09:59:45;4.87;;;4.47;;
3433;SDS011;1730;41.932;25.548;2023-05-29T10:02:16;4.50;;;4.20;;
3433;SDS011;1730;41.932;25.548;2023-05-29T10:04:43;4.50;;;4.10;;
3433;SDS011;1730;41.932;25.548;2023-05-29T10:07:32;4.37;;;3.93;;
3433;SDS011;1730;41.932;25.548;2023-05-29T10:10:02;5.80;;;5.40;;
3433;SDS011;1730;41.932;25.548;2023-05-29T10:12:31;4.53;;;4.13;;
3433;SDS011;1730;41.932;25.548;2023-05-29T10:14:59;3.93;;;3.63;;
3433;SDS011;1730;41.932;25.548;2023-05-29T10:17:29;3.90;;;3.70;;
3433;SDS011;1730;41.932;25.548;2023-05-29T10:19:58;4.23;;;3.83;;
3433;SDS011;1730;41.932;25.548;2023-05-29T10:22:27;4.00;;;3.80;;
3433;SDS011;1730;41.932;25.548;2023-05-29T10:24:56;4.00;;;3.70;;
3433;SDS011;1730;41.932;25.548;2023-05-29T10:27:21;4.50;;;3.77;;
3433;SDS011;1730;41.932;25.548;2023-05-29T10:29:59;4.03;;;3.83;;
3433;SDS011;1730;41.932;25.548;2023-05-29T10:35:08;7.47;;;6.60;;
3433;SDS011;1730;41.932;25.548;2023-05-29T10:37:59;6.30;;;5.03;;
3433;SDS011;1730;41.932;25.548;2023-05-29T10:40:35;7.43;;;4.43;;
3433;SDS011;1730;41.932;25.548;2023-05-29T10:43:01;5.73;;;4.20;;
3433;SDS011;1730;41.932;25.548;2023-05-29T10:50:42;6.73;;;4.10;;
3433;SDS011;1730;41.932;25.548;2023-05-29T10:53:08;5.70;;;3.30;;
3433;SDS011;1730;41.932;25.548;2023-05-29T10:55:38;5.73;;;3.90;;
3433;SDS011;1730;41.932;25.548;2023-05-29T10:58:05;4.23;;;3.27;;
3433;SDS011;1730;41.932;25.548;2023-05-29T11:00:34;5.20;;;4.27;;
3433;SDS011;1730;41.932;25.548;2023-05-29T11:03:07;11.13;;;3.83;;
3433;SDS011;1730;41.932;25.548;2023-05-29T11:05:34;16.97;;;4.67;;
3433;SDS011;1730;41.932;25.548;2023-05-29T11:08:00;9.70;;;5.33;;
3433;SDS011;1730;41.932;25.548;2023-05-29T11:10:41;11.97;;;5.27;;
3433;SDS011;1730;41.932;25.548;2023-05-29T11:13:38;11.60;;;5.87;;
3433;SDS011;1730;41.932;25.548;2023-05-29T11:16:10;11.00;;;5.43;;
3433;SDS011;1730;41.932;25.548;2023-05-29T11:18:45;12.07;;;5.47;;
3433;SDS011;1730;41.932;25.548;2023-05-29T11:26:50;12.30;;;7.70;;
3433;SDS011;1730;41.932;25.548;2023-05-29T11:29:24;9.70;;;8.00;;
3433;SDS011;1730;41.932;25.548;2023-05-29T11:32:04;9.43;;;7.93;;
3433;SDS011;1730;41.932;25.548;2023-05-29T11:34:31;13.23;;;8.00;;
3433;SDS011;1730;41.932;25.548;2023-05-29T11:37:01;11.60;;;9.10;;
3433;SDS011;1730;41.932;25.548;2023-05-29T11:39:28;12.10;;;9.40;;
3433;SDS011;1730;41.932;25.548;2023-05-29T11:41:54;17.87;;;9.20;;
3433;SDS011;1730;41.932;25.548;2023-05-29T11:44:20;14.20;;;9.77;;
3433;SDS011;1730;41.932;25.548;2023-05-29T11:49:34;14.07;;;10.00;;
3433;SDS011;1730;41.932;25.548;2023-05-29T11:52:05;13.00;;;10.27;;
3433;SDS011;1730;41.932;25.548;2023-05-29T11:54:39;17.80;;;9.20;;
3433;SDS011;1730;41.932;25.548;2023-05-29T11:57:06;9.73;;;7.90;;
3433;SDS011;1730;41.932;25.548;2023-05-29T11:59:32;11.17;;;8.77;;
3433;SDS011;1730;41.932;25.548;2023-05-29T12:01:59;8.60;;;7.77;;
3433;SDS011;1730;41.932;25.548;2023-05-29T12:04:27;10.73;;;9.00;;
3433;SDS011;1730;41.932;25.548;2023-05-29T12:06:53;14.97;;;9.00;;
3433;SDS011;1730;41.932;25.548;2023-05-29T12:11:51;12.63;;;9.43;;
3433;SDS011;1730;41.932;25.548;2023-05-29T12:14:16;13.13;;;8.90;;
3433;SDS011;1730;41.932;25.548;2023-05-29T12:16:42;14.60;;;8.70;;
3433;SDS011;1730;41.932;25.548;2023-05-29T12:19:08;8.80;;;8.10;;
3433;SDS011;1730;41.932;25.548;2023-05-29T12:21:34;17.13;;;8.73;;
3433;SDS011;1730;41.932;25.548;2023-05-29T12:24:00;12.80;;;8.50;;
3433;SDS011;1730;41.932;25.548;2023-05-29T12:26:26;10.20;;;8.10;;
3433;SDS011;1730;41.932;25.548;2023-05-29T12:28:55;13.50;;;9.10;;
3433;SDS011;1730;41.932;25.548;2023-05-29T12:31:27;10.03;;;9.03;;
3433;SDS011;1730;41.932;25.548;2023-05-29T12:33:54;8.80;;;8.03;;
3433;SDS011;1730;41.932;25.548;2023-05-29T12:36:25;14.90;;;9.53;;
3433;SDS011;1730;41.932;25.548;2023-05-29T12:38:51;9.70;;;8.70;;
3433;SDS011;1730;41.932;25.548;2023-05-29T12:41:22;12.60;;;10.20;;
3433;SDS011;1730;41.932;25.548;2023-05-29T12:43:58;9.97;;;8.40;;
3433;SDS011;1730;41.932;25.548;2023-05-29T12:46:26;6.97;;;6.37;;
3433;SDS011;1730;41.932;25.548;2023-05-29T12:48:55;6.93;;;6.33;;
3433;SDS011;1730;41.932;25.548;2023-05-29T12:51:25;6.50;;;6.00;;
3433;SDS011;1730;41.932;25.548;2023-05-29T12:53:51;10.37;;;8.00;;
3433;SDS011;1730;41.932;25.548;2023-05-29T12:56:21;16.83;;;7.97;;
3433;SDS011;1730;41.932;25.548;2023-05-29T12:58:49;14.43;;;7.17;;
3433;SDS011;1730;41.932;25.548;2023-05-29T13:01:16;9.30;;;7.30;;
3433;SDS011;1730;41.932;25.548;2023-05-29T13:03:41;9.80;;;7.73;;
3433;SDS011;1730;41.932;25.548;2023-05-29T13:06:07;6.67;;;6.17;;
3433;SDS011;1730;41.932;25.548;2023-05-29T13:08:33;8.73;;;7.27;;
3433;SDS011;1730;41.932;25.548;2023-05-29T13:10:58;8.10;;;6.47;;
3433;SDS011;1730;41.932;25.548;2023-05-29T13:13:24;6.70;;;6.03;;
3433;SDS011;1730;41.932;25.548;2023-05-29T13:15:49;7.50;;;5.53;;
3433;SDS011;1730;41.932;25.548;2023-05-29T13:18:15;4.50;;;4.20;;
3433;SDS011;1730;41.932;25.548;2023-05-29T13:20:40;7.90;;;4.23;;
3433;SDS011;1730;41.932;25.548;2023-05-29T13:23:06;4.30;;;3.90;;
3433;SDS011;1730;41.932;25.548;2023-05-29T13:25:33;4.73;;;4.43;;
3433;SDS011;1730;41.932;25.548;2023-05-29T13:27:59;5.80;;;4.53;;
3433;SDS011;1730;41.932;25.548;2023-05-29T13:30:25;6.73;;;5.17;;
3433;SDS011;1730;41.932;25.548;2023-05-29T13:32:53;5.93;;;5.50;;
3433;SDS011;1730;41.932;25.548;2023-05-29T13:35:19;4.97;;;4.53;;
3433;SDS011;1730;41.932;25.548;2023-05-29T13:37:45;7.90;;;4.93;;
3433;SDS011;1730;41.932;25.548;2023-05-29T13:40:10;6.30;;;5.70;;
3433;SDS011;1730;41.932;25.548;2023-05-29T13:42:37;7.60;;;4.97;;
3433;SDS011;1730;41.932;25.548;2023-05-29T13:45:04;5.80;;;5.33;;
3433;SDS011;1730;41.932;25.548;2023-05-29T13:47:31;6.87;;;5.93;;
3433;SDS011;1730;41.932;25.548;2023-05-29T13:49:57;5.73;;;5.33;;
3433;SDS011;1730;41.932;25.548;2023-05-29T13:52:23;11.67;;;5.60;;
3433;SDS011;1730;41.932;25.548;2023-05-29T13:54:49;7.60;;;7.07;;
3433;SDS011;1730;41.932;25.548;2023-05-29T13:57:15;6.87;;;6.27;;
3433;SDS011;1730;41.932;25.548;2023-05-29T13:59:40;6.47;;;5.77;;
3433;SDS011;1730;41.932;25.548;2023-05-29T14:02:07;6.57;;;5.73;;
3433;SDS011;1730;41.932;25.548;2023-05-29T14:04:48;9.27;;;6.13;;
3433;SDS011;1730;41.932;25.548;2023-05-29T14:07:36;9.47;;;5.67;;
3433;SDS011;1730;41.932;25.548;2023-05-29T14:10:03;6.17;;;5.57;;
3433;SDS011;1730;41.932;25.548;2023-05-29T14:14:59;6.60;;;6.00;;
3433;SDS011;1730;41.932;25.548;2023-05-29T14:17:26;7.33;;;6.83;;
3433;SDS011;1730;41.932;25.548;2023-05-29T14:19:52;6.70;;;6.20;;
3433;SDS011;1730;41.932;25.548;2023-05-29T14:22:17;6.13;;;5.50;;
3433;SDS011;1730;41.932;25.548;2023-05-29T14:24:48;5.80;;;5.37;;
3433;SDS011;1730;41.932;25.548;2023-05-29T14:27:14;6.80;;;6.20;;
3433;SDS011;1730;41.932;25.548;2023-05-29T14:29:41;6.00;;;5.50;;
3433;SDS011;1730;41.932;25.548;2023-05-29T14:32:06;5.93;;;5.60;;
3433;SDS011;1730;41.932;25.548;2023-05-29T14:34:32;6.83;;;6.07;;
3433;SDS011;1730;41.932;25.548;2023-05-29T14:36:57;6.10;;;5.67;;
3433;SDS011;1730;41.932;25.548;2023-05-29T14:39:22;6.60;;;5.50;;
3433;SDS011;1730;41.932;25.548;2023-05-29T14:41:48;8.53;;;6.00;;
3433;SDS011;1730;41.932;25.548;2023-05-29T14:44:14;6.50;;;5.90;;
3433;SDS011;1730;41.932;25.548;2023-05-29T14:46:39;7.30;;;6.70;;
3433;SDS011;1730;41.932;25.548;2023-05-29T14:49:05;5.67;;;4.83;;
3433;SDS011;1730;41.932;25.548;2023-05-29T14:51:31;7.67;;;7.07;;
3433;SDS011;1730;41.932;25.548;2023-05-29T14:53:56;6.10;;;5.50;;
3433;SDS011;1730;41.932;25.548;2023-05-29T14:56:21;6.00;;;5.13;;
3433;SDS011;1730;41.932;25.548;2023-05-29T14:58:47;4.80;;;4.50;;
3433;SDS011;1730;41.932;25.548;2023-05-29T15:01:16;6.53;;;4.43;;
3433;SDS011;1730;41.932;25.548;2023-05-29T15:03:42;4.57;;;4.27;;
3433;SDS011;1730;41.932;25.548;2023-05-29T15:06:08;4.50;;;4.20;;
3433;SDS011;1730;41.932;25.548;2023-05-29T15:08:35;8.03;;;4.97;;
3433;SDS011;1730;41.932;25.548;2023-05-29T15:11:01;6.07;;;5.50;;
3433;SDS011;1730;41.932;25.548;2023-05-29T15:13:30;9.37;;;5.60;;
3433;SDS011;1730;41.932;25.548;2023-05-29T15:15:56;5.60;;;5.10;;
3433;SDS011;1730;41.932;25.548;2023-05-29T15:18:24;5.70;;;5.30;;
3433;SDS011;1730;41.932;25.548;2023-05-29T15:20:51;6.27;;;5.67;;
3433;SDS011;1730;41.932;25.548;2023-05-29T15:23:18;7.03;;;5.93;;
3433;SDS011;1730;41.932;25.548;2023-05-29T15:25:44;6.47;;;5.93;;
3433;SDS011;1730;41.932;25.548;2023-05-29T15:28:09;6.73;;;6.23;;
3433;SDS011;1730;41.932;25.548;2023-05-29T15:30:38;8.03;;;5.80;;